createdAt,value
2018-05-16T00:02:12.232Z,11.56
2018-05-16T00:04:38.951Z,11.60
2018-05-16T00:07:05.655Z,11.67
2018-05-16T00:09:32.352Z,11.70
2018-05-16T00:11:59.061Z,11.72
2018-05-16T00:14:25.802Z,11.73
2018-05-16T00:16:53.394Z,11.82
2018-05-16T00:19:20.111Z,11.75
2018-05-16T00:21:46.811Z,11.74
2018-05-16T00:24:13.508Z,11.83
2018-05-16T00:26:40.226Z,11.79
2018-05-16T00:29:06.942Z,11.75
2018-05-16T00:31:34.387Z,11.78
2018-05-16T00:34:01.073Z,11.77
2018-05-16T00:36:27.840Z,11.90
2018-05-16T00:38:54.539Z,11.86
2018-05-16T00:41:21.319Z,11.83
2018-05-16T00:43:48.057Z,11.77
2018-05-16T00:46:14.754Z,11.68
2018-05-16T00:48:41.440Z,11.63
2018-05-16T00:51:26.649Z,11.59
2018-05-16T00:53:54.079Z,11.65
2018-05-16T00:56:20.804Z,11.56
2018-05-16T00:58:47.485Z,11.56
2018-05-16T01:01:14.912Z,11.56
2018-05-16T01:03:41.604Z,11.54
2018-05-16T01:06:08.348Z,11.54
2018-05-16T01:08:35.020Z,11.48
2018-05-16T01:11:01.699Z,11.50
2018-05-16T01:13:29.142Z,11.54
2018-05-16T01:15:56.607Z,11.60
2018-05-16T01:18:24.817Z,11.58
2018-05-16T01:20:51.496Z,11.55
2018-05-16T01:23:18.169Z,11.53
2018-05-16T01:25:44.864Z,11.51
2018-05-16T01:28:11.549Z,11.45
2018-05-16T01:30:38.259Z,11.41
2018-05-16T01:33:05.723Z,11.44
2018-05-16T01:35:33.164Z,11.38
2018-05-16T01:37:59.851Z,11.38
2018-05-16T01:40:26.532Z,11.38
2018-05-16T01:42:53.212Z,11.41
2018-05-16T01:45:19.897Z,11.46
2018-05-16T01:47:46.611Z,11.36
2018-05-16T01:50:13.292Z,11.28
2018-05-16T01:52:39.994Z,11.21
2018-05-16T01:55:06.671Z,11.15
2018-05-16T01:57:34.139Z,11.08
2018-05-16T02:00:01.599Z,11.05
2018-05-16T02:02:29.018Z,11.04
2018-05-16T02:04:55.724Z,10.94
2018-05-16T02:07:22.397Z,10.90
2018-05-16T02:09:49.092Z,10.88
2018-05-16T02:12:15.784Z,10.89
2018-05-16T02:14:42.491Z,10.82
2018-05-16T02:17:09.209Z,10.81
2018-05-16T02:19:39.011Z,10.76
2018-05-16T02:22:05.692Z,10.68
2018-05-16T02:24:32.391Z,10.63
2018-05-16T02:26:59.059Z,10.59
2018-05-16T02:29:25.844Z,10.53
2018-05-16T02:31:53.269Z,10.55
2018-05-16T02:34:19.944Z,10.58
2018-05-16T02:36:47.378Z,10.78
2018-05-16T02:39:14.086Z,10.87
2018-05-16T02:41:40.817Z,10.98
2018-05-16T02:44:07.512Z,11.03
2018-05-16T02:46:34.937Z,11.07
2018-05-16T02:49:01.627Z,11.17
2018-05-16T02:51:28.337Z,11.25
2018-05-16T02:53:55.025Z,11.32
2018-05-16T02:56:21.707Z,11.31
2018-05-16T02:58:48.465Z,11.42
2018-05-16T03:01:16.057Z,11.44
2018-05-16T03:03:42.741Z,11.46
2018-05-16T03:06:09.417Z,11.46
2018-05-16T03:08:36.100Z,11.43
2018-05-16T03:11:02.792Z,11.45
2018-05-16T03:13:29.505Z,11.45
2018-05-16T03:15:56.944Z,11.45
2018-05-16T03:18:24.464Z,11.47
2018-05-16T03:20:51.137Z,11.56
2018-05-16T03:23:17.832Z,11.47
2018-05-16T03:25:44.536Z,11.47
2018-05-16T03:28:12.007Z,11.47
2018-05-16T03:30:39.432Z,11.47
2018-05-16T03:33:06.127Z,11.48
2018-05-16T03:35:32.837Z,11.49
2018-05-16T03:38:00.257Z,11.52
2018-05-16T03:40:26.937Z,11.52
2018-05-16T03:42:54.377Z,11.48
2018-05-16T03:45:21.824Z,11.40
2018-05-16T03:47:48.496Z,11.38
2018-05-16T03:50:15.184Z,11.39
2018-05-16T03:52:41.904Z,11.49
2018-05-16T03:55:08.576Z,11.45
2018-05-16T04:01:09.752Z,11.57
2018-05-16T04:06:44.784Z,11.49
2018-05-16T04:09:11.505Z,11.58
2018-05-16T04:11:42.031Z,11.64
2018-05-16T04:14:08.707Z,11.70
2018-05-16T04:16:36.149Z,11.92
2018-05-16T04:19:02.859Z,12.11
2018-05-16T04:21:29.629Z,11.94
2018-05-16T04:23:56.981Z,11.93
2018-05-16T04:26:23.672Z,11.83
2018-05-16T04:28:50.393Z,11.73
2018-05-16T04:31:17.087Z,11.69
2018-05-16T04:33:43.812Z,11.67
2018-05-16T04:36:10.482Z,11.59
2018-05-16T04:38:37.156Z,11.61
2018-05-16T04:41:03.853Z,11.62
2018-05-16T04:43:30.517Z,11.69
2018-05-16T04:45:57.932Z,11.80
2018-05-16T04:48:24.631Z,12.00
2018-05-16T04:50:51.304Z,12.07
2018-05-16T04:53:18.014Z,11.93
2018-05-16T04:55:45.466Z,12.02
2018-05-16T04:58:12.179Z,11.97
2018-05-16T05:00:39.606Z,12.08
2018-05-16T05:03:06.292Z,12.10
2018-05-16T05:05:33.007Z,12.12
2018-05-16T05:07:59.712Z,12.08
2018-05-16T05:10:27.179Z,12.15
2018-05-16T05:12:53.904Z,12.25
2018-05-16T05:15:20.577Z,12.30
2018-05-16T05:17:48.025Z,12.29
2018-05-16T05:20:15.477Z,12.32
2018-05-16T05:22:42.229Z,12.42
2018-05-16T05:25:09.664Z,12.44
2018-05-16T05:27:36.336Z,12.46
2018-05-16T05:30:03.116Z,12.40
2018-05-16T05:32:29.844Z,12.38
2018-05-16T05:34:56.563Z,12.62
2018-05-16T05:37:23.257Z,12.72
2018-05-16T05:39:49.953Z,12.83
2018-05-16T05:42:16.660Z,12.84
2018-05-16T05:44:44.081Z,12.77
2018-05-16T05:47:10.784Z,12.80
2018-05-16T05:49:37.484Z,12.97
2018-05-16T05:52:04.937Z,12.88
2018-05-16T05:54:32.456Z,12.97
2018-05-16T05:56:59.166Z,13.08
2018-05-16T05:59:25.836Z,13.13
2018-05-16T06:01:52.628Z,13.00
2018-05-16T06:04:19.303Z,13.08
2018-05-16T06:06:46.019Z,13.17
2018-05-16T06:09:12.716Z,13.13
2018-05-16T06:11:39.497Z,13.19
2018-05-16T06:14:06.145Z,13.34
2018-05-16T06:16:32.827Z,13.40
2018-05-16T06:18:59.511Z,13.62
2018-05-16T06:21:26.204Z,13.70
2018-05-16T06:23:53.713Z,13.72
2018-05-16T06:26:20.404Z,14.06
2018-05-16T06:28:47.085Z,14.43
2018-05-16T06:31:13.774Z,14.71
2018-05-16T06:33:40.484Z,14.50
2018-05-16T06:36:07.169Z,15.00
2018-05-16T06:38:34.603Z,15.00
2018-05-16T06:41:01.296Z,14.81
2018-05-16T06:43:27.975Z,14.73
2018-05-16T06:45:54.738Z,14.82
2018-05-16T06:48:21.391Z,14.74
2018-05-16T06:50:48.838Z,14.85
2018-05-16T06:53:16.293Z,14.96
2018-05-16T06:55:42.994Z,14.94
2018-05-16T06:58:09.671Z,15.10
2018-05-16T07:00:37.107Z,15.10
2018-05-16T07:03:03.796Z,14.98
2018-05-16T07:05:30.484Z,11.98
2018-05-16T07:07:57.196Z,14.69
2018-05-16T07:10:23.878Z,14.56
2018-05-16T07:12:51.336Z,14.78
2018-05-16T07:15:18.764Z,14.91
2018-05-16T07:17:45.524Z,15.01
2018-05-16T07:20:12.941Z,14.99
2018-05-16T07:22:39.625Z,15.08
2018-05-16T07:25:07.848Z,15.10
2018-05-16T07:27:34.523Z,15.03
2018-05-16T07:30:01.243Z,15.23
2018-05-16T07:32:28.006Z,15.13
2018-05-16T07:34:54.663Z,15.29
2018-05-16T07:37:22.572Z,15.42
2018-05-16T07:39:50.569Z,15.49
2018-05-16T07:42:17.251Z,15.49
2018-05-16T07:44:43.951Z,15.68
2018-05-16T07:47:10.701Z,15.70
2018-05-16T07:49:37.378Z,16.03
2018-05-16T07:52:04.828Z,16.35
2018-05-16T07:54:31.549Z,16.44
2018-05-16T07:56:58.996Z,16.61
2018-05-16T07:59:25.705Z,16.59
2018-05-16T08:01:52.396Z,16.66
2018-05-16T08:04:19.075Z,16.55
2018-05-16T08:06:45.771Z,16.49
2018-05-16T08:09:12.499Z,16.62
2018-05-16T08:11:39.219Z,16.91
2018-05-16T08:14:05.974Z,17.21
2018-05-16T08:16:33.419Z,17.05
2018-05-16T08:19:00.884Z,17.35
2018-05-16T08:21:28.324Z,17.32
2018-05-16T08:23:56.543Z,17.54
2018-05-16T08:26:25.546Z,17.48
2018-05-16T08:28:52.226Z,17.49
2018-05-16T08:31:18.965Z,17.43
2018-05-16T08:33:45.666Z,17.46
2018-05-16T08:36:12.351Z,17.66
2018-05-16T08:38:39.791Z,17.53
2018-05-16T08:41:06.476Z,17.53
2018-05-16T08:43:33.172Z,17.54
2018-05-16T08:45:59.891Z,17.65
2018-05-16T08:48:26.598Z,17.97
2018-05-16T08:50:53.291Z,18.33
2018-05-16T08:53:19.983Z,18.24
2018-05-16T08:55:46.692Z,18.28
2018-05-16T08:58:14.164Z,18.95
2018-05-16T09:00:40.899Z,19.22
2018-05-16T09:03:07.617Z,19.37
2018-05-16T09:05:35.072Z,19.86
2018-05-16T09:08:02.517Z,19.49
2018-05-16T09:10:29.219Z,20.11
2018-05-16T09:12:55.912Z,20.57
2018-05-16T09:15:23.358Z,20.61
2018-05-16T09:17:50.799Z,20.47
2018-05-16T09:20:17.474Z,20.83
2018-05-16T09:22:44.156Z,20.36
2018-05-16T09:25:11.661Z,21.00
2018-05-16T09:27:38.724Z,20.96
2018-05-16T09:30:05.471Z,20.67
2018-05-16T09:32:32.156Z,20.62
2018-05-16T09:34:58.844Z,20.48
2018-05-16T09:37:25.544Z,20.73
2018-05-16T09:39:52.991Z,21.23
2018-05-16T09:42:19.694Z,20.81
2018-05-16T09:44:46.384Z,20.28
2018-05-16T09:47:13.864Z,19.85
2018-05-16T09:49:40.556Z,19.52
2018-05-16T09:52:07.248Z,19.61
2018-05-16T09:54:33.936Z,19.41
2018-05-16T09:57:00.656Z,19.26
2018-05-16T09:59:27.348Z,19.20
2018-05-16T10:01:54.055Z,19.39
2018-05-16T10:04:20.759Z,19.29
2018-05-16T10:06:47.433Z,18.86
2018-05-16T10:09:14.137Z,18.87
2018-05-16T10:11:40.826Z,18.58
2018-05-16T10:14:08.321Z,18.34
2018-05-16T10:16:35.033Z,18.15
2018-05-16T10:19:02.445Z,18.25
2018-05-16T10:21:29.152Z,18.25
2018-05-16T10:23:55.834Z,18.42
2018-05-16T10:26:23.292Z,18.47
2018-05-16T10:28:50.765Z,18.35
2018-05-16T10:31:18.215Z,18.65
2018-05-16T10:33:45.680Z,18.84
2018-05-16T10:36:13.129Z,19.10
2018-05-16T10:38:40.575Z,19.33
2018-05-16T10:41:07.280Z,19.56
2018-05-16T10:43:34.002Z,19.55
2018-05-16T10:46:00.720Z,19.61
2018-05-16T10:48:27.420Z,19.88
2018-05-16T10:50:54.144Z,20.01
2018-05-16T10:53:20.860Z,19.81
2018-05-16T10:55:47.579Z,20.14
2018-05-16T10:58:14.548Z,20.52
2018-05-16T11:00:42.037Z,21.02
2018-05-16T11:03:08.767Z,21.95
2018-05-16T11:05:35.485Z,22.64
2018-05-16T11:08:02.220Z,22.81
2018-05-16T11:10:28.959Z,22.34
2018-05-16T11:12:55.700Z,21.93
2018-05-16T11:15:22.448Z,21.15
2018-05-16T11:17:49.180Z,20.97
2018-05-16T11:20:15.926Z,20.48
2018-05-16T11:22:42.636Z,20.27
2018-05-16T11:25:09.388Z,19.92
2018-05-16T11:27:36.887Z,19.76
2018-05-16T11:30:04.612Z,19.66
2018-05-16T11:32:31.317Z,19.29
2018-05-16T11:34:58.807Z,18.99
2018-05-16T11:37:25.555Z,18.90
2018-05-16T11:39:52.280Z,18.90
2018-05-16T11:42:19.021Z,18.80
2018-05-16T11:44:45.779Z,18.72
2018-05-16T11:47:12.508Z,18.65
2018-05-16T11:49:39.254Z,18.65
2018-05-16T11:52:05.975Z,18.67
2018-05-16T11:54:32.684Z,18.57
2018-05-16T11:57:00.124Z,18.38
2018-05-16T11:59:26.824Z,18.35
2018-05-16T12:01:53.582Z,18.03
2018-05-16T12:04:20.312Z,17.94
2018-05-16T12:06:47.062Z,17.82
2018-05-16T12:09:13.815Z,17.82
2018-05-16T12:11:40.532Z,18.03
2018-05-16T12:14:07.324Z,18.30
2018-05-16T12:16:34.784Z,18.51
2018-05-16T12:19:01.494Z,18.60
2018-05-16T12:21:28.177Z,18.75
2018-05-16T12:23:54.887Z,18.79
2018-05-16T12:26:21.577Z,18.78
2018-05-16T12:28:48.286Z,18.94
2018-05-16T12:31:15.021Z,18.80
2018-05-16T12:33:41.711Z,18.75
2018-05-16T12:36:08.458Z,18.89
2018-05-16T12:38:35.176Z,18.76
2018-05-16T12:41:01.882Z,18.66
2018-05-16T12:43:30.547Z,18.51
2018-05-16T12:45:57.992Z,18.31
2018-05-16T12:48:24.719Z,18.09
2018-05-16T12:50:51.407Z,18.12
2018-05-16T12:53:18.137Z,17.83
2018-05-16T12:55:45.204Z,17.46
2018-05-16T12:58:11.907Z,17.28
2018-05-16T13:00:39.341Z,16.99
2018-05-16T13:03:06.055Z,16.71
2018-05-16T13:05:32.792Z,16.59
2018-05-16T13:07:59.492Z,16.48
2018-05-16T13:10:26.209Z,16.35
2018-05-16T13:12:53.767Z,16.26
2018-05-16T13:15:20.437Z,16.12
2018-05-16T13:17:47.238Z,15.99
2018-05-16T13:20:13.940Z,15.93
2018-05-16T13:22:40.680Z,15.88
2018-05-16T13:25:07.475Z,15.76
2018-05-16T13:27:34.959Z,15.61
2018-05-16T13:30:01.652Z,15.44
2018-05-16T13:32:28.370Z,15.26
2018-05-16T13:34:55.073Z,15.16
2018-05-16T13:37:21.782Z,15.14
2018-05-16T13:39:49.284Z,15.06
2018-05-16T13:42:16.032Z,15.19
2018-05-16T13:44:42.741Z,15.19
2018-05-16T13:47:09.484Z,15.03
2018-05-16T13:49:36.264Z,14.92
2018-05-16T13:52:27.062Z,14.79
2018-05-16T13:54:54.750Z,14.71
2018-05-16T13:57:22.224Z,14.60
2018-05-16T13:59:49.697Z,14.57
2018-05-16T14:02:16.449Z,14.49
2018-05-16T14:04:43.252Z,14.43
2018-05-16T14:07:10.713Z,14.39
2018-05-16T14:09:38.193Z,14.42
2018-05-16T14:12:05.049Z,14.39
2018-05-16T14:14:32.478Z,14.48
2018-05-16T14:16:59.224Z,14.45
2018-05-16T14:19:25.914Z,14.48
2018-05-16T14:21:52.621Z,14.42
2018-05-16T14:24:19.312Z,14.47
2018-05-16T14:26:45.996Z,14.49
2018-05-16T14:29:12.704Z,14.53
2018-05-16T14:31:40.169Z,14.56
2018-05-16T14:34:06.852Z,14.69
2018-05-16T14:36:33.571Z,14.81
2018-05-16T14:39:00.324Z,14.82
2018-05-16T14:41:27.041Z,14.97
2018-05-16T14:43:53.846Z,15.18
2018-05-16T14:46:21.337Z,15.27
2018-05-16T14:48:48.067Z,15.25
2018-05-16T14:51:16.432Z,15.34
2018-05-16T14:53:43.904Z,15.47
2018-05-16T14:56:10.651Z,15.47
2018-05-16T14:58:37.418Z,15.55
2018-05-16T15:01:04.192Z,15.61
2018-05-16T15:03:30.999Z,15.55
2018-05-16T15:05:57.686Z,15.63
2018-05-16T15:08:25.154Z,15.81
2018-05-16T15:10:51.972Z,15.64
2018-05-16T15:13:19.467Z,15.50
2018-05-16T15:15:46.204Z,15.46
2018-05-16T15:18:12.953Z,15.53
2018-05-16T15:20:39.797Z,15.46
2018-05-16T15:23:06.577Z,15.38
2018-05-16T15:25:33.392Z,15.45
2018-05-16T15:28:00.159Z,15.44
2018-05-16T15:30:26.877Z,15.33
2018-05-16T15:32:53.747Z,15.32
2018-05-16T15:35:20.497Z,15.28
2018-05-16T15:37:47.982Z,15.40
2018-05-16T15:40:14.728Z,15.46
2018-05-16T15:42:41.451Z,15.57
2018-05-16T15:45:08.223Z,15.69
2018-05-16T15:47:34.960Z,15.98
2018-05-16T15:50:01.740Z,16.39
2018-05-16T15:52:28.479Z,16.71
2018-05-16T15:54:55.202Z,16.59
2018-05-16T15:57:21.939Z,16.52
2018-05-16T15:59:48.710Z,16.43
2018-05-16T16:02:15.431Z,16.20
2018-05-16T16:04:42.173Z,16.16
2018-05-16T16:07:09.577Z,15.96
2018-05-16T16:09:36.316Z,15.77
2018-05-16T16:12:03.084Z,15.85
2018-05-16T16:14:29.807Z,15.73
2018-05-16T16:16:56.577Z,15.69
2018-05-16T16:19:23.333Z,15.83
2018-05-16T16:21:50.112Z,15.91
2018-05-16T16:24:16.884Z,15.87
2018-05-16T16:26:43.624Z,15.79
2018-05-16T16:29:10.366Z,15.58
2018-05-16T16:31:37.269Z,15.64
2018-05-16T16:34:04.042Z,15.74
2018-05-16T16:36:30.764Z,15.90
2018-05-16T16:38:57.595Z,15.96
2018-05-16T16:41:24.267Z,15.75
2018-05-16T16:43:51.526Z,15.76
2018-05-16T16:46:18.694Z,15.82
2018-05-16T16:48:45.741Z,15.82
2018-05-16T16:51:12.470Z,15.87
2018-05-16T16:53:39.244Z,15.83
2018-05-16T16:56:06.751Z,15.86
2018-05-16T16:58:34.004Z,15.86
2018-05-16T17:01:00.745Z,15.90
2018-05-16T17:03:27.479Z,16.01
2018-05-16T17:05:54.204Z,15.95
2018-05-16T17:08:21.012Z,15.93
2018-05-16T17:10:47.740Z,15.96
2018-05-16T17:13:14.510Z,15.89
2018-05-16T17:15:41.232Z,15.87
2018-05-16T17:18:08.820Z,15.95
2018-05-16T17:20:36.545Z,15.75
2018-05-16T17:23:04.057Z,15.64
2018-05-16T17:25:31.784Z,15.72
2018-05-16T17:27:59.425Z,15.63
2018-05-16T17:30:26.959Z,15.62
2018-05-16T17:32:53.673Z,15.53
2018-05-16T17:35:20.395Z,15.51
2018-05-16T17:37:47.107Z,15.51
2018-05-16T17:40:14.584Z,15.46
2018-05-16T17:42:41.324Z,15.33
2018-05-16T17:45:08.070Z,15.22
2018-05-16T17:47:35.855Z,15.23
2018-05-16T17:50:02.659Z,15.18
2018-05-16T17:52:29.379Z,15.16
2018-05-16T17:54:56.840Z,15.20
2018-05-16T17:57:24.368Z,15.13
2018-05-16T17:59:51.092Z,15.11
2018-05-16T18:02:17.853Z,15.08
2018-05-16T18:04:44.592Z,15.00
2018-05-16T18:07:11.297Z,14.95
2018-05-16T18:09:38.019Z,14.89
2018-05-16T18:12:05.494Z,14.84
2018-05-16T18:18:10.655Z,14.68
2018-05-16T18:20:37.721Z,14.63
2018-05-16T18:23:05.702Z,14.49
2018-05-16T18:25:32.831Z,14.42
2018-05-16T18:27:59.939Z,14.36
2018-05-16T18:30:26.994Z,14.28
2018-05-16T18:32:54.044Z,14.28
2018-05-16T18:35:21.113Z,14.28
2018-05-16T18:37:48.174Z,14.19
2018-05-16T18:40:15.931Z,14.12
2018-05-16T18:42:43.083Z,14.00
2018-05-16T18:45:10.202Z,14.01
2018-05-16T18:47:37.359Z,13.92
2018-05-16T18:50:04.450Z,13.89
2018-05-16T18:52:31.575Z,13.84
2018-05-16T18:54:58.651Z,13.81
2018-05-16T18:57:25.755Z,13.79
2018-05-16T18:59:52.910Z,13.78
2018-05-16T19:02:20.061Z,13.74
2018-05-16T19:04:47.129Z,13.79
2018-05-16T19:07:14.925Z,13.69
2018-05-16T19:09:47.851Z,13.62
2018-05-16T19:12:14.903Z,13.77
2018-05-16T19:14:42.011Z,13.91
2018-05-16T19:17:10.126Z,13.92
2018-05-16T19:19:37.258Z,14.08
2018-05-16T19:22:05.127Z,14.15
2018-05-16T19:24:32.222Z,14.12
2018-05-16T19:26:59.520Z,14.09
2018-05-16T19:29:26.647Z,13.86
2018-05-16T19:31:54.583Z,13.66
2018-05-16T19:34:23.577Z,13.56
2018-05-16T19:36:50.678Z,13.50
2018-05-16T19:39:17.737Z,13.39
2018-05-16T19:41:44.794Z,13.60
2018-05-16T19:44:12.584Z,13.91
2018-05-16T19:46:39.721Z,14.07
2018-05-16T19:49:07.154Z,14.15
2018-05-16T19:51:34.219Z,14.22
2018-05-16T19:54:01.273Z,14.10
2018-05-16T19:56:28.331Z,13.98
2018-05-16T19:58:56.290Z,13.91
2018-05-16T20:01:23.345Z,13.95
2018-05-16T20:03:50.473Z,13.84
2018-05-16T20:06:17.644Z,13.78
2018-05-16T20:08:44.687Z,13.72
2018-05-16T20:11:11.752Z,13.63
2018-05-16T20:13:39.575Z,13.68
2018-05-16T20:16:07.479Z,13.92
2018-05-16T20:18:34.560Z,13.89
2018-05-16T20:21:01.575Z,13.66
2018-05-16T20:23:29.393Z,13.50
2018-05-16T20:25:56.414Z,13.36
2018-05-16T20:28:23.459Z,13.21
2018-05-16T20:30:50.477Z,13.13
2018-05-16T20:33:17.552Z,13.06
2018-05-16T20:35:45.349Z,13.01
2018-05-16T20:38:13.162Z,13.00
2018-05-16T20:40:40.932Z,12.94
2018-05-16T20:43:08.732Z,12.91
2018-05-16T20:45:35.802Z,12.83
2018-05-16T20:48:02.852Z,12.76
2018-05-16T20:50:29.893Z,12.72
2018-05-16T20:52:56.933Z,12.66
2018-05-16T20:55:23.996Z,12.56
2018-05-16T20:57:51.036Z,12.52
2018-05-16T21:00:18.071Z,12.48
2018-05-16T21:02:45.096Z,12.46
2018-05-16T21:05:12.991Z,12.53
2018-05-16T21:07:40.919Z,12.44
2018-05-16T21:10:08.686Z,12.40
2018-05-16T21:12:35.686Z,12.35
2018-05-16T21:15:03.176Z,12.35
2018-05-16T21:17:30.218Z,12.37
2018-05-16T21:19:58.156Z,12.42
2018-05-16T21:22:25.249Z,12.63
2018-05-16T21:24:52.996Z,12.47
2018-05-16T21:27:21.847Z,12.46
2018-05-16T21:29:48.921Z,12.49
2018-05-16T21:32:15.993Z,12.55
2018-05-16T21:34:43.779Z,12.48
2018-05-16T21:37:10.892Z,12.42
2018-05-16T21:39:37.899Z,12.37
2018-05-16T21:42:04.966Z,12.28
2018-05-16T21:44:32.555Z,12.24
2018-05-16T21:46:59.580Z,12.22
2018-05-16T21:49:27.034Z,12.20
2018-05-16T21:51:54.104Z,12.25
2018-05-16T21:54:21.154Z,12.23
2018-05-16T21:56:49.032Z,12.18
2018-05-16T21:59:15.984Z,12.15
2018-05-16T22:01:43.017Z,12.16
2018-05-16T22:04:10.798Z,12.12
2018-05-16T22:06:37.847Z,12.04
2018-05-16T22:09:05.691Z,11.99
2018-05-16T22:11:33.412Z,11.98
2018-05-16T22:14:00.422Z,11.90
2018-05-16T22:16:27.452Z,11.85
2018-05-16T22:18:55.241Z,11.85
2018-05-16T22:21:22.284Z,11.85
2018-05-16T22:23:49.327Z,11.89
2018-05-16T22:26:17.116Z,11.86
2018-05-16T22:28:44.145Z,11.80
2018-05-16T22:31:17.279Z,11.75
2018-05-16T22:33:50.500Z,12.15
2018-05-16T22:36:23.595Z,12.34
2018-05-16T22:38:57.415Z,12.32
2018-05-16T22:41:31.300Z,12.55
2018-05-16T22:44:01.642Z,12.70
2018-05-16T22:46:29.427Z,12.70
2018-05-16T22:48:56.455Z,12.67
2018-05-16T22:51:24.508Z,12.69
2018-05-16T22:53:51.527Z,12.77
2018-05-16T22:56:18.535Z,12.67
2018-05-16T22:58:45.641Z,12.41
2018-05-16T23:01:12.995Z,12.35
2018-05-16T23:03:40.001Z,12.30
2018-05-16T23:06:07.142Z,12.36
2018-05-16T23:08:34.151Z,12.36
2018-05-16T23:11:01.172Z,12.35
2018-05-16T23:13:28.215Z,12.33
2018-05-16T23:15:55.279Z,12.28
2018-05-16T23:18:23.031Z,12.30
2018-05-16T23:20:50.033Z,12.31
2018-05-16T23:23:17.027Z,12.33
2018-05-16T23:25:44.027Z,12.29
2018-05-16T23:28:11.172Z,12.17
2018-05-16T23:30:38.224Z,12.06
2018-05-16T23:33:05.236Z,12.02
2018-05-16T23:35:33.219Z,12.03
2018-05-16T23:38:00.959Z,11.98
2018-05-16T23:40:28.249Z,12.00
2018-05-16T23:42:55.259Z,11.98
2018-05-16T23:45:22.459Z,11.97
2018-05-16T23:47:50.492Z,12.00
2018-05-16T23:50:17.691Z,12.01
2018-05-16T23:52:44.664Z,12.07
2018-05-16T23:55:11.679Z,12.17
2018-05-16T23:57:39.521Z,12.22
